Loading…
Loading…
Loading…
Loading…
Loading parcel record…
Hopewell Twp, NJ·Mercer County
Owner email, phone, and authorized agent are available on Pro.
| Date | Price | Book / Page | Verified by |
|---|---|---|---|
| 1/24/2020 | $275,000 | — | Recorded deed |
Activity captured from the county clerk's daily feed. Includes deeds, mortgages, and other recorded filings.
| Date | Type | Grantor | Grantee | Book / Page | Instrument |
|---|---|---|---|---|---|
| 2026-04-28 | NOS | — | — |
| 1627 / 866 |
| 2026017758 |
| 2025-05-07 | DEED | — | — | 6590 / 304 | 2025016702 |
| 2025-03-12 | DEED | — | — | 6585 / 240 | 2025009965 |
| 2023-08-25 | DEED | — | — | 6532 / 943 | 2023029324 |
| 2022-05-09 | DEED | — | — | 6484 / 1391 | 2022023508 |
| 2022-05-06 | MISC DEED | — | — | 6484 / 1185 | 2022023327 |
| 2022-05-03 | MISC DEED | — | — | 6484 / 476 | 2022022730 |
| 2022-03-16 | TAX SALE CERTIFICATE | — | — | 11721 / 1675 | 2022014087 |
| 2021-12-27 | DEED | — | — | 6468 / 1991 | 2021075505 |
| 2021-12-27 | POWER OF ATTORNEY | — | — | 6468 / 1988 | 2021075504 |
| 2021-08-23 | MORTGAGE | — | — | 11654 / 406 | 2021050914 |
| 2021-08-23 | DEED | — | — | 6453 / 1041 | 2021050913 |
| 2021-03-15 | MISC DEED | — | — | 6434 / 895 | 2021016095 |
| 2020-12-21 | DEED | — | — | 6425 / 503 | 2020059571 |
| 2020-02-03 | DEED | — | — | 6395 / 1161 | 2020005424 |
| 2019-12-23 | NOTICE OF LIS PENDENS | — | — | 429 / 1131 | 2019055170 |
| 2019-08-09 | DEED | — | — | 6376 / 1970 | 2019033913 |
| 2019-03-25 | MISC DEED | — | — | 6361 / 1751 | 2019012187 |
| 2019-03-01 | DEED MUNICIPAL | — | — | 6359 / 675 | 2019008871 |
| 2019-02-11 | MISC DEED | — | — | 6357 / 1640 | 2019006082 |
| 2018-10-10 | MISC DEED | — | — | 6344 / 465 | 2018043835 |
| 2018-09-27 | MORTGAGE | — | — | 11368 / 1750 | 2018041625 |
| 2018-09-27 | POWER OF ATTORNEY | — | — | 6342 / 1487 | 2018041624 |
| 2018-01-29 | ASSIGNMENT OF MORTGAGES | — | — | 1183 / 1487 | 2018003803 |
| 2017-10-25 | MISC DEED | — | — | 6304 / 1689 | 2017049289 |
| 2017-06-30 | MISC DEED | — | — | 6291 / 72 | 2017029853 |
| 2017-01-25 | DEED | — | — | 6274 / 1386 | 2017003545 |
| 2016-02-18 | DISCHARGE OF MORTGAGE | — | — | 1536 / 963 | 2016008255 |
| 2015-08-17 | SECURED TRANSACTION | — | — | 222 / 683 | 2015037373 |
| 2015-04-21 | DEED | — | — | 6216 / 879 | 2015017558 |